createdAt,value
2024-01-03T00:00:09.656Z,62.44
2024-01-03T00:01:09.780Z,63.72
2024-01-03T00:02:09.905Z,64.54
2024-01-03T00:03:09.924Z,63.96
2024-01-03T00:04:09.951Z,65.50
2024-01-03T00:05:10.134Z,61.77
2024-01-03T00:06:10.172Z,63.32
2024-01-03T00:07:10.066Z,62.29
2024-01-03T00:08:10.321Z,65.64
2024-01-03T00:09:10.188Z,65.29
2024-01-03T00:10:10.277Z,66.10
2024-01-03T00:11:10.313Z,63.79
2024-01-03T00:12:10.369Z,64.80
2024-01-03T00:13:10.416Z,62.77
2024-01-03T00:14:10.535Z,63.17
2024-01-03T00:15:10.534Z,63.02
2024-01-03T00:16:10.604Z,63.91
2024-01-03T00:17:10.692Z,63.25
2024-01-03T00:18:11.115Z,63.89
2024-01-03T00:19:10.836Z,63.29
2024-01-03T00:20:10.885Z,63.16
2024-01-03T00:21:11.006Z,63.54
2024-01-03T00:22:10.959Z,63.58
2024-01-03T00:23:11.045Z,63.78
2024-01-03T00:24:11.103Z,64.81
2024-01-03T00:25:11.175Z,62.88
2024-01-03T00:26:11.248Z,62.26
2024-01-03T00:27:11.292Z,65.30
2024-01-03T00:28:11.364Z,63.21
2024-01-03T00:29:11.435Z,65.43
2024-01-03T00:30:11.539Z,63.79
2024-01-03T00:31:11.556Z,64.03
2024-01-03T00:32:11.653Z,62.71
2024-01-03T00:33:11.788Z,63.93
2024-01-03T00:34:11.885Z,62.10
2024-01-03T00:35:11.936Z,65.52
2024-01-03T00:36:11.889Z,64.79
2024-01-03T00:37:11.947Z,63.79
2024-01-03T00:38:12.039Z,64.93
2024-01-03T00:39:12.078Z,63.89
2024-01-03T00:40:12.114Z,63.59
2024-01-03T00:41:12.201Z,63.54
2024-01-03T00:42:12.250Z,65.22
2024-01-03T00:43:12.306Z,64.34
2024-01-03T00:44:12.953Z,65.09
2024-01-03T00:45:12.499Z,66.52
2024-01-03T00:46:12.480Z,65.21
2024-01-03T00:47:12.575Z,64.15
2024-01-03T00:48:13.307Z,63.68
2024-01-03T00:49:15.831Z,63.15
2024-01-03T00:50:12.789Z,65.74
2024-01-03T00:51:12.709Z,65.41
2024-01-03T00:52:12.700Z,65.54
2024-01-03T00:53:12.775Z,64.53
2024-01-03T00:54:12.698Z,64.77
2024-01-03T00:55:12.698Z,62.70
2024-01-03T00:56:14.552Z,63.02
2024-01-03T00:57:12.742Z,63.10
2024-01-03T00:58:12.706Z,63.40
2024-01-03T00:59:12.795Z,62.67
2024-01-03T01:00:12.697Z,64.28
2024-01-03T01:01:12.738Z,65.42
2024-01-03T01:02:12.734Z,64.72
2024-01-03T01:03:12.732Z,65.50
2024-01-03T01:04:12.766Z,64.34
2024-01-03T01:05:12.761Z,65.96
2024-01-03T01:06:12.879Z,66.28
2024-01-03T01:07:12.704Z,65.93
2024-01-03T01:08:12.833Z,64.61
2024-01-03T01:09:12.729Z,67.92
2024-01-03T01:10:12.733Z,66.63
2024-01-03T01:11:12.766Z,67.19
2024-01-03T01:12:12.717Z,67.00
2024-01-03T01:13:12.737Z,64.97
2024-01-03T01:14:12.818Z,66.02
2024-01-03T01:15:12.730Z,65.04
2024-01-03T01:16:12.748Z,67.84
2024-01-03T01:17:12.892Z,69.98
2024-01-03T01:18:13.249Z,66.08
2024-01-03T01:19:12.895Z,65.64
2024-01-03T01:20:12.767Z,68.29
2024-01-03T01:21:12.744Z,66.09
2024-01-03T01:22:12.757Z,67.64
2024-01-03T01:23:12.761Z,67.96
2024-01-03T01:24:12.743Z,67.86
2024-01-03T01:25:12.766Z,66.80
2024-01-03T01:26:12.777Z,65.95
2024-01-03T01:27:12.760Z,68.01
2024-01-03T01:28:12.772Z,66.47
2024-01-03T01:29:12.949Z,68.35
2024-01-03T01:30:13.448Z,68.15
2024-01-03T01:31:12.764Z,67.90
2024-01-03T01:32:15.151Z,69.42
2024-01-03T01:33:13.091Z,69.74
2024-01-03T01:34:13.030Z,66.63
2024-01-03T01:35:13.104Z,68.32
2024-01-03T01:36:13.133Z,70.37
2024-01-03T01:37:13.907Z,67.91
2024-01-03T01:38:13.388Z,70.08
2024-01-03T01:39:13.400Z,69.14
2024-01-03T01:40:13.391Z,66.98
2024-01-03T01:41:13.490Z,69.53
2024-01-03T01:42:13.512Z,71.10
2024-01-03T01:43:13.572Z,72.13
2024-01-03T01:44:13.693Z,69.91
2024-01-03T01:45:13.767Z,71.74
2024-01-03T01:46:13.806Z,68.80
2024-01-03T01:47:13.862Z,68.81
2024-01-03T01:48:14.224Z,68.43
2024-01-03T01:49:14.043Z,70.21
2024-01-03T01:50:14.068Z,68.53
2024-01-03T01:51:14.153Z,72.37
2024-01-03T01:52:14.140Z,73.49
2024-01-03T01:53:14.247Z,70.55
2024-01-03T01:54:14.406Z,71.69
2024-01-03T01:55:14.329Z,69.32
2024-01-03T01:56:14.412Z,70.86
2024-01-03T01:57:14.443Z,69.46
2024-01-03T01:58:14.533Z,68.66
2024-01-03T01:59:14.632Z,69.03
2024-01-03T02:00:14.744Z,69.34
2024-01-03T02:01:14.745Z,71.49
2024-01-03T02:02:14.813Z,68.71
2024-01-03T02:03:14.894Z,68.90
2024-01-03T02:04:14.927Z,69.78
2024-01-03T02:05:15.217Z,70.18
2024-01-03T02:06:16.068Z,69.69
2024-01-03T02:07:15.111Z,72.81
2024-01-03T02:08:15.203Z,69.58
2024-01-03T02:09:15.230Z,69.17
2024-01-03T02:10:15.308Z,70.90
2024-01-03T02:11:15.384Z,68.76
2024-01-03T02:12:15.413Z,70.38
2024-01-03T02:13:15.513Z,71.47
2024-01-03T02:14:15.603Z,68.37
2024-01-03T02:15:15.620Z,67.57
2024-01-03T02:16:16.380Z,68.56
2024-01-03T02:17:15.772Z,69.87
2024-01-03T02:18:16.299Z,70.72
2024-01-03T02:19:15.924Z,70.95
2024-01-03T02:20:15.976Z,69.87
2024-01-03T02:21:16.009Z,70.31
2024-01-03T02:22:16.070Z,70.90
2024-01-03T02:23:16.159Z,68.75
2024-01-03T02:24:16.275Z,70.13
2024-01-03T02:25:16.324Z,70.84
2024-01-03T02:26:25.318Z,74.00
2024-01-03T02:27:17.396Z,71.88
2024-01-03T02:28:16.338Z,67.98
2024-01-03T02:29:16.395Z,69.41
2024-01-03T02:30:16.407Z,71.98
2024-01-03T02:31:16.360Z,69.46
2024-01-03T02:32:16.400Z,70.02
2024-01-03T02:33:17.167Z,68.55
2024-01-03T02:34:16.392Z,68.17
2024-01-03T02:35:16.363Z,68.87
2024-01-03T02:36:16.407Z,71.03
2024-01-03T02:37:16.467Z,71.00
2024-01-03T02:38:16.550Z,70.02
2024-01-03T02:39:16.593Z,68.17
2024-01-03T02:40:16.655Z,69.74
2024-01-03T02:41:16.736Z,70.59
2024-01-03T02:42:16.757Z,70.76
2024-01-03T02:43:16.819Z,70.24
2024-01-03T02:44:16.914Z,70.74
2024-01-03T02:45:16.945Z,69.70
2024-01-03T02:46:16.999Z,70.30
2024-01-03T02:47:17.088Z,70.18
2024-01-03T02:48:17.490Z,70.24
2024-01-03T02:49:17.985Z,70.08
2024-01-03T02:50:17.280Z,70.94
2024-01-03T02:51:17.296Z,69.86
2024-01-03T02:52:17.418Z,68.98
2024-01-03T02:53:17.520Z,68.60
2024-01-03T02:54:17.477Z,70.77
2024-01-03T02:55:17.533Z,69.08
2024-01-03T02:56:17.660Z,67.10
2024-01-03T02:57:17.661Z,68.38
2024-01-03T02:58:17.736Z,68.02
2024-01-03T02:59:17.818Z,67.28
2024-01-03T03:00:18.475Z,67.14
2024-01-03T03:01:17.954Z,68.86
2024-01-03T03:02:18.011Z,69.71
2024-01-03T03:03:18.037Z,68.64
2024-01-03T03:04:18.097Z,68.76
2024-01-03T03:05:18.138Z,67.93
2024-01-03T03:06:18.270Z,64.72
2024-01-03T03:07:18.298Z,69.31
2024-01-03T03:08:18.328Z,68.64
2024-01-03T03:09:18.448Z,69.20
2024-01-03T03:10:18.421Z,67.74
2024-01-03T03:11:18.575Z,66.38
2024-01-03T03:12:19.451Z,66.22
2024-01-03T03:13:18.610Z,66.57
2024-01-03T03:14:18.710Z,66.38
2024-01-03T03:15:18.709Z,68.30
2024-01-03T03:16:18.761Z,63.97
2024-01-03T03:17:18.859Z,64.81
2024-01-03T03:18:19.134Z,68.64
2024-01-03T03:19:19.023Z,66.75
2024-01-03T03:20:19.085Z,66.13
2024-01-03T03:21:19.134Z,68.67
2024-01-03T03:22:19.128Z,65.72
2024-01-03T03:23:19.212Z,62.92
2024-01-03T03:24:19.269Z,66.52
2024-01-03T03:25:19.322Z,64.25
2024-01-03T03:26:19.439Z,67.45
2024-01-03T03:27:19.441Z,66.36
2024-01-03T03:28:19.496Z,66.35
2024-01-03T03:29:19.591Z,64.33
2024-01-03T03:30:19.633Z,64.88
2024-01-03T03:31:19.684Z,64.97
2024-01-03T03:32:19.865Z,65.82
2024-01-03T03:33:20.033Z,64.05
2024-01-03T03:34:19.984Z,67.57
2024-01-03T03:35:19.970Z,64.50
2024-01-03T03:36:19.997Z,66.03
2024-01-03T03:37:20.066Z,65.88
2024-01-03T03:38:20.238Z,64.29
2024-01-03T03:39:20.210Z,65.87
2024-01-03T03:40:20.272Z,63.75
2024-01-03T03:41:20.386Z,66.05
2024-01-03T03:42:20.389Z,65.47
2024-01-03T03:43:20.432Z,64.12
2024-01-03T03:44:20.627Z,65.29
2024-01-03T03:45:20.621Z,65.98
2024-01-03T03:46:20.674Z,63.77
2024-01-03T03:47:20.748Z,63.54
2024-01-03T03:48:20.837Z,63.07
2024-01-03T03:49:20.898Z,66.18
2024-01-03T03:50:20.915Z,64.72
2024-01-03T03:51:20.941Z,64.95
2024-01-03T03:52:21.005Z,63.71
2024-01-03T03:53:21.110Z,67.63
2024-01-03T03:54:21.146Z,64.89
2024-01-03T03:55:21.248Z,63.41
2024-01-03T03:56:21.307Z,64.03
2024-01-03T03:57:21.396Z,65.73
2024-01-03T03:58:21.390Z,64.89
2024-01-03T03:59:21.489Z,66.02
2024-01-03T04:00:21.514Z,62.57
2024-01-03T04:01:21.583Z,64.37
2024-01-03T04:02:21.680Z,64.13
2024-01-03T04:03:21.763Z,65.23
2024-01-03T04:04:21.945Z,64.61
2024-01-03T04:05:22.037Z,64.16
2024-01-03T04:06:21.957Z,64.23
2024-01-03T04:07:22.004Z,63.06
2024-01-03T04:08:22.097Z,64.62
2024-01-03T04:09:22.590Z,63.05
2024-01-03T04:10:22.168Z,64.05
2024-01-03T04:11:22.288Z,64.95
2024-01-03T04:12:22.395Z,63.92
2024-01-03T04:13:22.361Z,64.94
2024-01-03T04:14:22.477Z,65.79
2024-01-03T04:15:22.585Z,64.78
2024-01-03T04:16:22.633Z,62.95
2024-01-03T04:17:22.755Z,64.01
2024-01-03T04:18:22.800Z,61.84
2024-01-03T04:19:22.773Z,63.52
2024-01-03T04:20:22.815Z,63.02
2024-01-03T04:21:22.928Z,64.49
2024-01-03T04:22:22.899Z,64.47
2024-01-03T04:23:23.033Z,64.97
2024-01-03T04:24:23.030Z,63.23
2024-01-03T04:25:24.026Z,64.08
2024-01-03T04:26:23.176Z,64.58
2024-01-03T04:27:23.203Z,64.38
2024-01-03T04:28:23.270Z,63.62
2024-01-03T04:29:23.347Z,61.81
2024-01-03T04:30:23.415Z,65.09
2024-01-03T04:31:23.436Z,64.98
2024-01-03T04:32:23.599Z,62.00
2024-01-03T04:33:23.919Z,65.51
2024-01-03T04:34:23.667Z,62.01
2024-01-03T04:35:23.734Z,61.03
2024-01-03T04:36:23.773Z,62.42
2024-01-03T04:37:23.801Z,62.04
2024-01-03T04:38:23.881Z,62.06
2024-01-03T04:39:23.973Z,61.37
2024-01-03T04:40:23.992Z,64.16
2024-01-03T04:41:31.307Z,50.00
2024-01-03T04:42:31.894Z,50.00
2024-01-03T04:43:31.300Z,50.00
2024-01-03T04:44:31.348Z,50.00
2024-01-03T04:45:31.333Z,50.00
2024-01-03T04:46:31.330Z,51.86
2024-01-03T04:47:31.407Z,51.83
2024-01-03T04:48:31.499Z,51.49
2024-01-03T04:49:31.420Z,51.62
2024-01-03T04:50:31.437Z,52.78
2024-01-03T04:51:31.398Z,55.40
2024-01-03T04:52:31.405Z,52.71
2024-01-03T04:53:31.473Z,53.63
2024-01-03T04:54:31.430Z,51.76
2024-01-03T04:55:31.443Z,52.76
2024-01-03T04:56:31.482Z,51.26
2024-01-03T04:57:31.467Z,53.82
2024-01-03T04:58:31.521Z,53.14
2024-01-03T04:59:31.631Z,52.95
2024-01-03T05:00:31.967Z,51.82
2024-01-03T05:01:31.513Z,50.66
2024-01-03T05:02:32.400Z,54.61
2024-01-03T05:03:31.593Z,53.65
2024-01-03T05:04:31.546Z,55.19
2024-01-03T05:05:31.583Z,54.69
2024-01-03T05:06:31.624Z,51.74
2024-01-03T05:07:31.565Z,55.27
2024-01-03T05:08:31.632Z,51.78
2024-01-03T05:09:31.584Z,52.13
2024-01-03T05:10:31.595Z,51.32
2024-01-03T05:11:31.625Z,55.14
2024-01-03T05:12:31.624Z,57.12
2024-01-03T05:13:31.637Z,52.23
2024-01-03T05:14:31.650Z,56.05
2024-01-03T05:15:31.745Z,54.66
2024-01-03T05:16:31.729Z,51.03
2024-01-03T05:17:31.871Z,53.64
2024-01-03T05:18:31.937Z,54.00
2024-01-03T05:19:32.025Z,52.88
2024-01-03T05:20:32.056Z,53.33
2024-01-03T05:21:32.057Z,53.12
2024-01-03T05:22:32.123Z,50.62
2024-01-03T05:23:32.201Z,50.23
2024-01-03T05:24:32.251Z,52.37
2024-01-03T05:25:32.306Z,52.09
2024-01-03T05:26:32.456Z,54.22
2024-01-03T05:27:32.452Z,52.11
2024-01-03T05:28:32.506Z,52.77
2024-01-03T05:29:32.613Z,50.52
2024-01-03T05:30:32.660Z,53.42
2024-01-03T05:31:32.724Z,54.48
2024-01-03T05:32:32.823Z,54.67
2024-01-03T05:33:33.515Z,53.28
2024-01-03T05:34:32.934Z,53.42
2024-01-03T05:35:32.997Z,52.05
2024-01-03T05:36:33.045Z,54.38
2024-01-03T05:37:33.090Z,54.54
2024-01-03T05:38:33.171Z,52.71
2024-01-03T05:39:33.225Z,55.08
2024-01-03T05:40:33.306Z,54.40
2024-01-03T05:41:33.468Z,53.24
2024-01-03T05:42:33.427Z,52.82
2024-01-03T05:43:33.492Z,52.55
2024-01-03T05:44:33.604Z,52.90
2024-01-03T05:45:33.610Z,53.66
2024-01-03T05:46:33.677Z,51.05
2024-01-03T05:47:33.872Z,51.44
2024-01-03T05:48:33.942Z,51.28
2024-01-03T05:49:33.940Z,54.24
2024-01-03T05:50:33.964Z,52.87
2024-01-03T05:51:33.989Z,51.74
2024-01-03T05:52:34.060Z,53.15
2024-01-03T05:53:34.179Z,51.17
2024-01-03T05:54:34.289Z,52.47
2024-01-03T05:55:34.254Z,52.42
2024-01-03T05:56:34.353Z,53.39
2024-01-03T05:57:34.391Z,51.76
2024-01-03T05:58:34.457Z,54.67
2024-01-03T05:59:34.545Z,53.67
2024-01-03T06:00:34.637Z,51.41
2024-01-03T06:01:34.637Z,51.13
2024-01-03T06:02:34.733Z,51.85
2024-01-03T06:03:34.765Z,51.61
2024-01-03T06:04:34.829Z,50.66
2024-01-03T06:05:35.000Z,50.42
2024-01-03T06:06:35.112Z,50.00
2024-01-03T06:07:35.011Z,51.71
2024-01-03T06:08:35.222Z,54.04
2024-01-03T06:09:35.222Z,50.25
2024-01-03T06:10:35.219Z,52.22
2024-01-03T06:11:35.376Z,52.42
2024-01-03T06:12:35.361Z,51.43
2024-01-03T06:13:35.411Z,52.19
2024-01-03T06:14:35.523Z,52.35
2024-01-03T06:15:35.635Z,53.24
2024-01-03T06:16:35.679Z,52.32
2024-01-03T06:17:35.716Z,54.20
2024-01-03T06:18:35.879Z,54.77
2024-01-03T06:19:35.864Z,52.29
2024-01-03T06:20:36.003Z,52.50
2024-01-03T06:21:35.942Z,51.90
2024-01-03T06:22:36.003Z,51.22
2024-01-03T06:23:36.929Z,51.82
2024-01-03T06:24:36.138Z,52.22
2024-01-03T06:25:36.208Z,52.77
2024-01-03T06:26:36.304Z,52.50
2024-01-03T06:27:36.422Z,53.88
2024-01-03T06:28:36.411Z,52.73
2024-01-03T06:29:40.104Z,54.59
2024-01-03T06:30:36.548Z,54.61
2024-01-03T06:31:36.513Z,52.78
2024-01-03T06:32:37.477Z,54.41
2024-01-03T06:33:36.627Z,53.39
2024-01-03T06:34:36.620Z,51.72
2024-01-03T06:35:36.568Z,52.91
2024-01-03T06:36:36.537Z,52.27
2024-01-03T06:37:36.536Z,51.68
2024-01-03T06:38:36.571Z,54.76
2024-01-03T06:39:37.421Z,52.89
2024-01-03T06:40:36.580Z,54.52
2024-01-03T06:41:36.601Z,53.12
2024-01-03T06:42:36.610Z,52.77
2024-01-03T06:43:36.683Z,51.51
2024-01-03T06:44:36.767Z,52.75
2024-01-03T06:45:36.917Z,52.95
2024-01-03T06:46:36.873Z,52.69
2024-01-03T06:47:37.069Z,53.24
2024-01-03T06:48:37.189Z,53.54
2024-01-03T06:49:37.132Z,53.35
2024-01-03T06:50:37.204Z,53.21
2024-01-03T06:51:37.238Z,54.40
2024-01-03T06:52:37.260Z,52.54
2024-01-03T06:53:37.362Z,53.38
2024-01-03T06:54:37.405Z,51.95
2024-01-03T06:55:37.459Z,53.73
2024-01-03T06:56:37.620Z,51.99
2024-01-03T06:57:37.581Z,53.25
2024-01-03T06:58:37.664Z,53.15
2024-01-03T06:59:37.772Z,52.71
2024-01-03T07:00:37.819Z,53.10
2024-01-03T07:01:37.837Z,52.04
2024-01-03T07:02:38.057Z,53.18
2024-01-03T07:03:38.152Z,52.89
2024-01-03T07:04:38.029Z,52.50
2024-01-03T07:05:38.226Z,51.80
2024-01-03T07:06:38.268Z,51.57
2024-01-03T07:07:38.234Z,51.93
2024-01-03T07:08:38.358Z,54.02
2024-01-03T07:09:38.385Z,51.71
2024-01-03T07:10:38.434Z,54.82
2024-01-03T07:11:38.540Z,54.36
2024-01-03T07:12:38.581Z,55.44
2024-01-03T07:13:38.617Z,54.53
2024-01-03T07:14:38.715Z,52.58
2024-01-03T07:15:38.755Z,52.65
2024-01-03T07:16:38.827Z,52.71
2024-01-03T07:17:38.948Z,53.95
2024-01-03T07:18:39.052Z,54.97
2024-01-03T07:19:39.029Z,53.61
2024-01-03T07:20:39.117Z,54.15
2024-01-03T07:21:39.141Z,54.29
2024-01-03T07:22:39.200Z,56.01
2024-01-03T07:23:39.303Z,52.87
2024-01-03T07:24:39.336Z,54.28
2024-01-03T07:25:39.418Z,52.66
2024-01-03T07:26:39.491Z,51.04
2024-01-03T07:27:39.604Z,52.25
2024-01-03T07:28:39.610Z,51.69
2024-01-03T07:29:39.703Z,51.18
2024-01-03T07:30:39.949Z,51.31
2024-01-03T07:31:39.801Z,53.51
2024-01-03T07:32:39.921Z,52.89
2024-01-03T07:33:40.058Z,52.37
2024-01-03T07:34:40.114Z,51.65
2024-01-03T07:35:40.144Z,53.62
2024-01-03T07:36:40.117Z,53.03
2024-01-03T07:37:41.033Z,50.79
2024-01-03T07:38:40.274Z,53.37
2024-01-03T07:39:40.305Z,52.65
2024-01-03T07:40:40.393Z,50.37
2024-01-03T07:41:40.493Z,52.97
2024-01-03T07:42:40.512Z,53.12
2024-01-03T07:43:40.603Z,52.24
2024-01-03T07:44:40.677Z,52.13
2024-01-03T07:45:40.719Z,50.28
2024-01-03T07:46:40.794Z,54.18
2024-01-03T07:47:41.528Z,54.72
2024-01-03T07:48:41.162Z,53.03
2024-01-03T07:49:41.202Z,54.57
2024-01-03T07:50:41.308Z,52.64
2024-01-03T07:51:41.162Z,54.97
2024-01-03T07:52:41.204Z,55.01
2024-01-03T07:53:41.342Z,53.85
2024-01-03T07:54:41.345Z,52.63
2024-01-03T07:55:41.398Z,52.28
2024-01-03T07:56:41.509Z,52.76
2024-01-03T07:57:42.977Z,54.89
2024-01-03T07:58:41.602Z,53.81
2024-01-03T07:59:41.751Z,55.90
2024-01-03T08:00:41.765Z,51.89
2024-01-03T08:01:41.812Z,54.99
2024-01-03T08:02:41.884Z,51.49
2024-01-03T08:03:42.044Z,55.29
2024-01-03T08:04:42.004Z,52.35
2024-01-03T08:05:42.167Z,55.69
2024-01-03T08:06:42.355Z,53.60
2024-01-03T08:07:42.224Z,54.55
2024-01-03T08:08:42.361Z,54.83
2024-01-03T08:09:42.358Z,53.49
2024-01-03T08:10:42.435Z,55.42
2024-01-03T08:11:42.539Z,52.13
2024-01-03T08:12:42.565Z,54.95
2024-01-03T08:13:42.633Z,54.43
2024-01-03T08:14:42.730Z,53.52
2024-01-03T08:15:42.763Z,52.98
2024-01-03T08:16:42.896Z,53.22
2024-01-03T08:17:42.969Z,53.64
2024-01-03T08:18:43.066Z,55.78
2024-01-03T08:19:43.169Z,52.82
2024-01-03T08:20:43.265Z,53.55
2024-01-03T08:21:43.171Z,54.40
2024-01-03T08:22:43.197Z,53.04
2024-01-03T08:23:43.304Z,52.55
2024-01-03T08:24:43.330Z,53.52
2024-01-03T08:25:43.412Z,51.58
2024-01-03T08:26:43.518Z,53.44
2024-01-03T08:27:43.528Z,52.14
2024-01-03T08:28:43.591Z,53.22
2024-01-03T08:29:45.047Z,51.97
2024-01-03T08:30:43.793Z,52.51
2024-01-03T08:31:43.798Z,50.11
2024-01-03T08:32:44.028Z,53.53
2024-01-03T08:33:44.061Z,51.30
2024-01-03T08:34:44.004Z,51.68
2024-01-03T08:35:44.073Z,52.03
2024-01-03T08:36:44.111Z,54.86
2024-01-03T08:37:44.189Z,54.44
2024-01-03T08:38:44.413Z,50.31
2024-01-03T08:39:44.327Z,53.16
2024-01-03T08:40:44.958Z,52.71
2024-01-03T08:41:44.527Z,52.10
2024-01-03T08:42:44.602Z,52.47
2024-01-03T08:43:44.706Z,52.51
2024-01-03T08:44:44.748Z,54.67
2024-01-03T08:45:44.774Z,52.95
2024-01-03T08:46:44.827Z,53.37
2024-01-03T08:47:45.047Z,55.11
2024-01-03T08:48:45.358Z,53.11
2024-01-03T08:49:45.248Z,51.79
2024-01-03T08:50:45.212Z,54.88
2024-01-03T08:51:45.167Z,51.30
2024-01-03T08:52:45.197Z,55.11
2024-01-03T08:53:45.350Z,54.48
2024-01-03T08:54:45.472Z,53.54
2024-01-03T08:55:45.386Z,51.85
2024-01-03T08:56:45.500Z,52.89
2024-01-03T08:57:45.506Z,54.78
2024-01-03T08:58:45.558Z,52.70
2024-01-03T08:59:45.704Z,52.50
2024-01-03T09:00:45.741Z,53.59
2024-01-03T09:01:45.756Z,53.05
2024-01-03T09:02:45.854Z,53.42
2024-01-03T09:03:45.924Z,52.49
2024-01-03T09:04:45.945Z,52.91
2024-01-03T09:05:46.050Z,53.89
2024-01-03T09:06:46.171Z,51.20
2024-01-03T09:07:46.132Z,51.98
2024-01-03T09:08:46.308Z,52.24
2024-01-03T09:09:46.282Z,52.92
2024-01-03T09:10:46.349Z,50.05
2024-01-03T09:11:46.493Z,52.22
2024-01-03T09:12:46.468Z,50.75
2024-01-03T09:13:49.521Z,52.42
2024-01-03T09:14:46.567Z,52.14
2024-01-03T09:15:46.540Z,52.97
2024-01-03T09:16:46.552Z,52.77
2024-01-03T09:17:46.611Z,53.13
2024-01-03T09:18:46.721Z,51.43
2024-01-03T09:19:46.619Z,52.70
2024-01-03T09:20:46.612Z,53.73
2024-01-03T09:21:46.660Z,53.59
2024-01-03T09:22:46.613Z,52.65
2024-01-03T09:23:46.702Z,51.30
2024-01-03T09:24:46.616Z,52.42
2024-01-03T09:25:46.625Z,52.41
2024-01-03T09:26:47.475Z,53.35
2024-01-03T09:27:46.634Z,53.65
2024-01-03T09:28:46.633Z,52.25
2024-01-03T09:29:46.662Z,53.34
2024-01-03T09:30:46.697Z,54.10
2024-01-03T09:31:46.659Z,53.37
2024-01-03T09:32:46.759Z,51.28
2024-01-03T09:33:46.766Z,52.23
2024-01-03T09:34:46.743Z,55.21
2024-01-03T09:35:46.716Z,52.78
2024-01-03T09:36:46.684Z,53.03
2024-01-03T09:37:46.695Z,51.04
2024-01-03T09:38:46.717Z,52.61
2024-01-03T09:39:46.700Z,53.89
2024-01-03T09:40:46.694Z,52.96
2024-01-03T09:41:46.750Z,53.26
2024-01-03T09:42:47.077Z,51.87
2024-01-03T09:43:46.746Z,53.79
2024-01-03T09:44:46.772Z,51.39
2024-01-03T09:45:46.734Z,50.00
2024-01-03T09:46:46.721Z,52.89
2024-01-03T09:47:46.801Z,50.00
2024-01-03T09:48:46.824Z,51.79
2024-01-03T09:49:46.767Z,51.04
2024-01-03T09:50:46.753Z,50.00
2024-01-03T09:51:46.730Z,52.06
2024-01-03T09:52:46.720Z,52.49
2024-01-03T09:53:46.772Z,52.85
2024-01-03T09:54:46.733Z,53.33
2024-01-03T09:55:46.730Z,53.46
2024-01-03T09:56:46.835Z,51.93
2024-01-03T09:57:46.763Z,50.89
2024-01-03T09:58:46.752Z,53.60
2024-01-03T09:59:46.834Z,50.88
2024-01-03T10:00:46.728Z,50.41
2024-01-03T10:01:46.712Z,52.53
2024-01-03T10:02:46.829Z,52.52
2024-01-03T10:03:46.746Z,51.88
2024-01-03T10:04:46.749Z,52.47
2024-01-03T10:05:46.826Z,53.48
2024-01-03T10:06:46.693Z,52.46
2024-01-03T10:07:46.689Z,53.47
2024-01-03T10:08:46.721Z,53.33
2024-01-03T10:09:46.672Z,51.84
2024-01-03T10:10:46.689Z,52.84
2024-01-03T10:11:46.721Z,52.16
2024-01-03T10:12:46.689Z,53.90
2024-01-03T10:13:46.750Z,55.33
2024-01-03T10:14:46.874Z,55.67
2024-01-03T10:15:46.881Z,54.62
2024-01-03T10:16:46.924Z,54.78
2024-01-03T10:17:47.190Z,54.30
2024-01-03T10:18:47.162Z,54.78
2024-01-03T10:19:47.171Z,51.22
2024-01-03T10:20:47.190Z,54.84
2024-01-03T10:21:47.970Z,55.36
2024-01-03T10:22:47.320Z,53.95
2024-01-03T10:23:47.331Z,54.42
2024-01-03T10:24:47.457Z,53.06
2024-01-03T10:25:47.424Z,55.07
2024-01-03T10:26:47.532Z,56.08
2024-01-03T10:27:47.470Z,51.69
2024-01-03T10:28:47.512Z,55.61
2024-01-03T10:29:48.877Z,50.00
2024-01-03T10:30:47.637Z,59.54
2024-01-03T10:31:47.507Z,55.86
2024-01-03T10:32:47.703Z,54.46
2024-01-03T10:33:58.665Z,53.95
2024-01-03T10:34:48.678Z,54.15
2024-01-03T10:35:47.638Z,53.97
2024-01-03T10:36:47.508Z,57.77
2024-01-03T10:37:47.480Z,59.52
2024-01-03T10:38:47.544Z,55.95
2024-01-03T10:39:47.567Z,57.17
2024-01-03T10:40:47.460Z,51.96
2024-01-03T10:41:47.540Z,55.79
2024-01-03T10:42:47.459Z,56.67
2024-01-03T10:43:47.443Z,54.88
2024-01-03T10:44:47.460Z,58.46
2024-01-03T10:45:47.430Z,52.79
2024-01-03T10:46:47.411Z,55.38
2024-01-03T10:47:47.456Z,53.29
2024-01-03T10:48:47.467Z,53.08
2024-01-03T10:49:47.392Z,60.14
2024-01-03T10:50:47.380Z,56.32
2024-01-03T10:51:49.912Z,53.11
2024-01-03T10:52:47.417Z,57.50
2024-01-03T10:53:47.372Z,55.68
2024-01-03T10:54:47.322Z,56.12
2024-01-03T10:55:47.316Z,56.47
2024-01-03T10:56:47.350Z,56.14
2024-01-03T10:57:47.275Z,57.10
2024-01-03T10:58:47.260Z,56.59
2024-01-03T10:59:47.296Z,58.09
2024-01-03T11:00:47.274Z,55.91
2024-01-03T11:01:47.209Z,57.07
2024-01-03T11:02:47.266Z,57.83
2024-01-03T11:03:47.221Z,54.22
2024-01-03T11:04:47.178Z,58.47
2024-01-03T11:05:47.251Z,58.10
2024-01-03T11:06:47.270Z,57.90
2024-01-03T11:07:47.147Z,57.53
2024-01-03T11:08:47.127Z,57.31
2024-01-03T11:09:47.113Z,58.36
2024-01-03T11:10:47.485Z,60.74
2024-01-03T11:11:47.154Z,60.46
2024-01-03T11:12:47.119Z,61.66
2024-01-03T11:13:47.071Z,58.74
2024-01-03T11:14:47.085Z,58.66
2024-01-03T11:15:50.376Z,57.92
2024-01-03T11:16:47.013Z,57.98
2024-01-03T11:17:47.092Z,58.05
2024-01-03T11:18:47.100Z,59.00
2024-01-03T11:19:47.577Z,58.55
2024-01-03T11:20:47.207Z,62.35
2024-01-03T11:21:47.233Z,61.05
2024-01-03T11:22:46.898Z,59.89
2024-01-03T11:23:46.899Z,59.33
2024-01-03T11:24:46.863Z,61.88
2024-01-03T11:25:46.844Z,61.00
2024-01-03T11:26:46.866Z,61.17
2024-01-03T11:27:46.792Z,61.15
2024-01-03T11:28:46.783Z,59.45
2024-01-03T11:29:46.839Z,61.86
2024-01-03T11:30:46.802Z,59.77
2024-01-03T11:31:47.004Z,59.68
2024-01-03T11:32:47.901Z,60.83
2024-01-03T11:33:46.750Z,59.94
2024-01-03T11:34:46.757Z,61.80
2024-01-03T11:35:46.692Z,61.80
2024-01-03T11:36:46.604Z,62.53
2024-01-03T11:37:46.564Z,62.45
2024-01-03T11:38:46.594Z,63.37
2024-01-03T11:39:46.525Z,61.90
2024-01-03T11:40:46.505Z,63.75
2024-01-03T11:41:46.522Z,60.74
2024-01-03T11:42:46.508Z,61.20
2024-01-03T11:43:46.431Z,62.98
2024-01-03T11:44:46.421Z,63.81
2024-01-03T11:45:46.406Z,62.24
2024-01-03T11:46:46.357Z,61.79
2024-01-03T11:47:46.564Z,62.68
2024-01-03T11:48:46.449Z,63.73
2024-01-03T11:49:46.317Z,66.46
2024-01-03T11:50:46.338Z,66.85
2024-01-03T11:51:46.245Z,68.82
2024-01-03T11:52:46.222Z,68.21
2024-01-03T11:53:46.263Z,67.89
2024-01-03T11:54:46.368Z,68.57
2024-01-03T11:55:46.241Z,67.65
2024-01-03T11:56:46.308Z,67.12
2024-01-03T11:57:46.318Z,66.03
2024-01-03T11:58:46.349Z,70.50
2024-01-03T11:59:46.423Z,66.24
2024-01-03T12:00:46.423Z,67.53
2024-01-03T12:01:46.489Z,68.01
2024-01-03T12:02:46.533Z,67.19
2024-01-03T12:03:46.424Z,69.93
2024-01-03T12:04:46.513Z,70.81
2024-01-03T12:05:46.621Z,69.30
2024-01-03T12:06:46.564Z,69.48
2024-01-03T12:07:49.478Z,70.42
2024-01-03T12:08:46.394Z,70.52
2024-01-03T12:09:46.347Z,70.54
2024-01-03T12:10:46.330Z,71.24
2024-01-03T12:11:46.346Z,70.92
2024-01-03T12:12:46.260Z,73.15
2024-01-03T12:13:48.015Z,75.22
2024-01-03T12:14:46.244Z,76.35
2024-01-03T12:15:52.018Z,77.64
2024-01-03T12:16:47.143Z,77.79
2024-01-03T12:17:46.210Z,78.33
2024-01-03T12:18:46.147Z,78.89
2024-01-03T12:19:47.241Z,79.34
2024-01-03T12:20:46.139Z,78.81
2024-01-03T12:21:45.997Z,77.21
2024-01-03T12:22:45.964Z,78.25
2024-01-03T12:23:45.990Z,75.59
2024-01-03T12:24:45.927Z,77.03
2024-01-03T12:25:47.302Z,77.31
2024-01-03T12:26:45.971Z,74.82
2024-01-03T12:27:46.020Z,75.39
2024-01-03T12:28:46.038Z,74.24
2024-01-03T12:29:46.129Z,74.31
2024-01-03T12:30:46.299Z,71.67
2024-01-03T12:31:47.611Z,75.32
2024-01-03T12:32:47.109Z,72.42
2024-01-03T12:33:46.180Z,74.27
2024-01-03T12:34:46.053Z,71.51
2024-01-03T12:35:46.066Z,70.94
2024-01-03T12:36:45.971Z,70.87
2024-01-03T12:37:47.012Z,70.09
2024-01-03T12:38:45.912Z,72.42
2024-01-03T12:39:45.880Z,71.12
2024-01-03T12:40:45.896Z,71.53
2024-01-03T12:41:45.853Z,71.89
2024-01-03T12:42:45.786Z,73.44
2024-01-03T12:43:45.755Z,73.42
2024-01-03T12:44:45.732Z,72.88
2024-01-03T12:45:45.674Z,74.62
2024-01-03T12:46:45.631Z,72.06
2024-01-03T12:47:45.629Z,74.35
2024-01-03T12:48:45.652Z,71.25
2024-01-03T12:49:45.746Z,72.64
2024-01-03T12:50:45.559Z,74.36
2024-01-03T12:52:46.478Z,71.23
2024-01-03T12:53:45.554Z,72.74